Time;durP1;ratioP1;P1;durP2;ratioP2;P2;SDS_P1;SDS_P2;PMS_P1;PMS_P2;Temp;Humidity;BMP_temperature;BMP_pressure;BME280_temperature;BME280_humidity;BME280_pressure;Samples;Min_cycle;Max_cycle;Signal;HPM_P1;HPM_P2
2022/10/22 00:01:29;;;;;;;0.30;0.30;;;12.50;99.90;;;;;;5136378;27;20510;-82
2022/10/22 00:03:55;;;;;;;0.30;0.30;;;12.40;99.90;;;;;;5135750;27;20442;-82
2022/10/22 00:06:24;;;;;;;0.30;0.30;;;12.40;99.90;;;;;;5135593;27;20485;-83
2022/10/22 00:08:51;;;;;;;0.30;0.20;;;12.40;99.90;;;;;;5135569;27;20442;-83
2022/10/22 00:11:19;;;;;;;0.30;0.20;;;12.40;99.90;;;;;;5135471;27;20473;-83
2022/10/22 00:13:47;;;;;;;0.30;0.30;;;12.40;99.90;;;;;;5135585;27;20453;-83
2022/10/22 00:16:14;;;;;;;0.30;0.20;;;12.40;99.90;;;;;;5135121;27;21015;-82
2022/10/22 00:18:41;;;;;;;0.30;0.20;;;12.40;99.90;;;;;;5135515;27;20450;-82
2022/10/22 00:21:08;;;;;;;0.30;0.20;;;12.30;99.90;;;;;;5135468;27;20463;-85
2022/10/22 00:23:36;;;;;;;0.43;0.30;;;12.30;99.90;;;;;;5135506;27;20442;-85
2022/10/22 00:26:03;;;;;;;0.30;0.20;;;12.30;99.90;;;;;;5135254;27;20451;-85
2022/10/22 00:28:29;;;;;;;0.30;0.30;;;12.20;99.90;;;;;;5136722;27;20933;-85
2022/10/22 00:30:57;;;;;;;0.43;0.37;;;12.30;99.90;;;;;;5135306;27;20458;-86
2022/10/22 00:33:24;;;;;;;0.30;0.20;;;12.20;99.90;;;;;;5135521;27;20447;-85
2022/10/22 00:35:51;;;;;;;0.37;0.27;;;12.20;99.90;;;;;;5135229;27;20454;-86
2022/10/22 00:38:18;;;;;;;0.50;0.30;;;12.20;99.90;;;;;;5134969;27;20964;-85
2022/10/22 00:40:47;;;;;;;0.30;0.20;;;12.20;99.90;;;;;;5135505;27;20470;-85
2022/10/22 00:43:16;;;;;;;0.30;0.20;;;12.30;99.90;;;;;;5135845;27;20439;-85
2022/10/22 00:45:43;;;;;;;0.40;0.30;;;12.20;99.90;;;;;;5135030;27;20936;-85
2022/10/22 00:48:11;;;;;;;0.30;0.30;;;12.20;99.90;;;;;;5134622;27;21020;-85
2022/10/22 00:50:43;;;;;;;0.37;0.30;;;12.20;99.90;;;;;;5134965;27;20474;-85
2022/10/22 00:53:13;;;;;;;0.30;0.20;;;12.30;99.90;;;;;;5135334;27;20427;-85
2022/10/22 00:55:42;;;;;;;0.47;0.30;;;12.30;99.90;;;;;;5134958;27;20457;-85
2022/10/22 00:58:10;;;;;;;0.30;0.30;;;12.30;99.90;;;;;;5134540;27;20434;-85
2022/10/22 01:00:37;;;;;;;0.30;0.30;;;12.30;99.90;;;;;;5134844;27;20458;-85
2022/10/22 01:03:04;;;;;;;0.30;0.30;;;12.20;99.90;;;;;;5134255;27;20450;-85
2022/10/22 01:05:38;;;;;;;0.30;0.30;;;12.20;99.90;;;;;;5134815;27;20453;-85
2022/10/22 01:08:09;;;;;;;0.30;0.30;;;12.20;99.90;;;;;;5134853;27;20474;-84
2022/10/22 01:10:49;;;;;;;2.33;1.00;;;12.30;99.90;;;;;;5134574;27;20467;-84
2022/10/22 01:13:33;;;;;;;0.30;0.30;;;12.30;99.90;;;;;;5134264;27;20434;-84
2022/10/22 01:16:06;;;;;;;0.30;0.20;;;12.30;99.90;;;;;;5134494;27;20579;-84
2022/10/22 01:18:37;;;;;;;0.30;0.30;;;12.20;99.90;;;;;;5136023;27;20474;-84
2022/10/22 01:21:14;;;;;;;0.30;0.20;;;12.20;99.90;;;;;;5134278;27;20823;-84
2022/10/22 01:24:05;;;;;;;0.30;0.20;;;12.20;99.90;;;;;;5134822;27;20426;-84
2022/10/22 01:26:43;;;;;;;0.30;0.20;;;12.20;99.90;;;;;;5134953;27;20470;-85
2022/10/22 01:29:15;;;;;;;0.30;0.30;;;12.10;99.90;;;;;;5134730;28;20435;-85
2022/10/22 01:31:46;;;;;;;0.30;0.20;;;12.20;99.90;;;;;;5134414;28;20462;-86
2022/10/22 01:34:16;;;;;;;0.30;0.30;;;12.20;99.90;;;;;;5134680;28;20443;-85
2022/10/22 01:36:44;;;;;;;0.30;0.30;;;12.10;99.90;;;;;;5135109;28;20423;-86
2022/10/22 01:39:14;;;;;;;0.30;0.30;;;12.20;99.90;;;;;;5134549;28;20443;-85
2022/10/22 01:41:44;;;;;;;0.40;0.30;;;12.20;99.90;;;;;;5134419;28;20466;-86
2022/10/22 01:44:28;;;;;;;0.40;0.33;;;12.20;99.90;;;;;;5134774;28;20446;-86
2022/10/22 01:47:03;;;;;;;0.30;0.20;;;12.10;99.90;;;;;;5134173;28;20470;-85
2022/10/22 01:49:44;;;;;;;0.30;0.30;;;12.10;99.90;;;;;;5134438;28;20423;-86
2022/10/22 01:52:21;;;;;;;0.30;0.30;;;12.10;99.90;;;;;;5133837;28;21043;-85
2022/10/22 01:54:59;;;;;;;0.60;0.50;;;12.00;99.90;;;;;;5134184;28;20434;-84
2022/10/22 01:57:32;;;;;;;0.30;0.30;;;12.10;99.90;;;;;;5134213;28;20797;-86
2022/10/22 02:00:06;;;;;;;0.30;0.20;;;12.10;99.90;;;;;;5134431;28;20437;-85
2022/10/22 02:02:52;;;;;;;0.30;0.30;;;12.10;99.90;;;;;;5133910;28;20788;-84
2022/10/22 02:05:24;;;;;;;0.30;0.30;;;12.20;99.90;;;;;;5134104;28;20435;-85
2022/10/22 02:07:55;;;;;;;0.30;0.30;;;12.20;99.90;;;;;;5134074;28;20462;-84
2022/10/22 02:10:24;;;;;;;0.30;0.30;;;12.20;99.90;;;;;;5134050;28;20458;-84
2022/10/22 02:12:54;;;;;;;0.70;0.70;;;12.20;99.90;;;;;;5134275;28;20445;-84
2022/10/22 02:15:26;;;;;;;0.60;0.30;;;12.20;99.90;;;;;;5134668;27;20475;-85
2022/10/22 02:17:55;;;;;;;0.30;0.30;;;12.20;99.90;;;;;;5137913;27;20423;-85
2022/10/22 02:20:27;;;;;;;0.30;0.20;;;12.10;99.90;;;;;;5137618;27;20454;-84
2022/10/22 02:22:55;;;;;;;0.40;0.30;;;12.00;99.90;;;;;;5137920;27;20434;-85
2022/10/22 02:25:23;;;;;;;0.40;0.40;;;12.00;99.90;;;;;;5137682;27;20447;-84
2022/10/22 02:27:58;;;;;;;0.30;0.20;;;11.90;99.90;;;;;;5137363;27;20799;-84
2022/10/22 02:30:26;;;;;;;0.60;0.30;;;12.00;99.90;;;;;;5137567;27;20462;-83
2022/10/22 02:32:59;;;;;;;0.30;0.30;;;12.00;99.90;;;;;;5137575;27;20446;-84
2022/10/22 02:35:28;;;;;;;0.30;0.20;;;12.00;99.90;;;;;;5137568;27;20408;-83
2022/10/22 02:37:57;;;;;;;0.30;0.20;;;12.00;99.90;;;;;;5137076;27;20447;-82
2022/10/22 02:40:24;;;;;;;0.30;0.30;;;12.00;99.90;;;;;;5137082;27;20472;-84
2022/10/22 02:42:51;;;;;;;0.67;0.40;;;12.00;99.90;;;;;;5137375;27;20447;-83
2022/10/22 02:45:20;;;;;;;0.30;0.30;;;12.00;99.90;;;;;;5137288;27;20439;-82
2022/10/22 02:47:48;;;;;;;0.30;0.30;;;12.00;99.90;;;;;;5136881;27;21000;-84
2022/10/22 02:50:15;;;;;;;0.30;0.30;;;12.00;99.90;;;;;;5136809;27;20467;-83
2022/10/22 02:52:42;;;;;;;0.40;0.30;;;11.90;99.90;;;;;;5136840;27;20443;-83
2022/10/22 02:55:09;;;;;;;2.63;0.43;;;12.00;99.90;;;;;;5137115;27;20443;-82
2022/10/22 02:57:36;;;;;;;0.30;0.30;;;12.00;99.90;;;;;;5137031;27;20449;-82
2022/10/22 03:00:04;;;;;;;0.80;0.40;;;11.90;99.90;;;;;;5136580;27;20457;-82
2022/10/22 03:02:31;;;;;;;0.30;0.30;;;12.00;99.90;;;;;;5136577;27;20949;-83
2022/10/22 03:05:00;;;;;;;0.30;0.30;;;12.00;99.90;;;;;;5137121;27;20442;-84
2022/10/22 03:07:26;;;;;;;0.30;0.30;;;12.00;99.90;;;;;;5136767;27;20485;-83
2022/10/22 03:09:53;;;;;;;0.30;0.20;;;12.00;99.90;;;;;;5136691;27;20453;-82
2022/10/22 03:12:20;;;;;;;0.30;0.30;;;12.00;99.90;;;;;;5136371;27;20438;-81
2022/10/22 03:14:47;;;;;;;0.30;0.20;;;12.00;99.90;;;;;;5136447;27;20934;-82
2022/10/22 03:17:13;;;;;;;0.30;0.20;;;12.00;99.90;;;;;;5136172;27;20474;-82
2022/10/22 03:19:40;;;;;;;0.30;0.20;;;12.00;99.90;;;;;;5136615;27;20454;-83
2022/10/22 03:22:13;;;;;;;0.30;0.30;;;12.10;99.90;;;;;;5136521;27;20463;-82
2022/10/22 03:24:44;;;;;;;0.50;0.30;;;12.10;99.90;;;;;;5136527;27;20437;-82
2022/10/22 03:27:14;;;;;;;0.30;0.30;;;12.10;99.90;;;;;;5135933;27;20470;-82
2022/10/22 03:29:42;;;;;;;0.40;0.40;;;12.10;99.90;;;;;;5136457;27;20427;-82
2022/10/22 03:32:09;;;;;;;0.30;0.20;;;12.10;99.90;;;;;;5136267;27;20835;-84
2022/10/22 03:34:36;;;;;;;0.30;0.20;;;12.00;99.90;;;;;;5136215;27;20451;-82
2022/10/22 03:37:02;;;;;;;0.30;0.30;;;12.10;99.90;;;;;;5136290;27;20447;-82
2022/10/22 03:39:33;;;;;;;0.30;0.20;;;12.00;99.90;;;;;;5136192;27;20446;-81
2022/10/22 03:42:00;;;;;;;0.30;0.30;;;12.00;99.90;;;;;;5136098;27;20463;-82
2022/10/22 03:44:28;;;;;;;0.30;0.30;;;12.00;99.90;;;;;;5136078;27;20447;-82
2022/10/22 03:46:54;;;;;;;0.30;0.30;;;12.10;99.90;;;;;;5136033;27;20462;-81
2022/10/22 03:49:21;;;;;;;0.33;0.30;;;12.00;99.90;;;;;;5135960;27;20489;-82
2022/10/22 03:51:48;;;;;;;0.30;0.30;;;12.00;99.90;;;;;;5135595;27;20823;-82
2022/10/22 03:54:16;;;;;;;0.30;0.20;;;12.00;99.90;;;;;;5135973;27;20440;-82
2022/10/22 03:56:44;;;;;;;0.30;0.30;;;12.00;99.90;;;;;;5135592;27;20830;-81
2022/10/22 03:59:12;;;;;;;0.30;0.30;;;12.00;99.90;;;;;;5135811;27;20434;-81
2022/10/22 04:01:39;;;;;;;0.30;0.20;;;12.00;99.90;;;;;;5135732;27;20819;-82
2022/10/22 04:04:06;;;;;;;0.30;0.30;;;12.10;99.90;;;;;;5135390;27;20520;-82
2022/10/22 04:06:32;;;;;;;0.50;0.33;;;12.10;99.90;;;;;;5135335;27;20905;-82
2022/10/22 04:08:59;;;;;;;0.30;0.20;;;12.10;99.90;;;;;;5135559;27;20490;-82
2022/10/22 04:11:26;;;;;;;0.30;0.30;;;12.00;99.90;;;;;;5135143;27;20471;-82
2022/10/22 04:13:54;;;;;;;0.30;0.20;;;12.00;99.90;;;;;;5136307;27;20443;-83
2022/10/22 04:16:23;;;;;;;0.40;0.30;;;12.00;99.90;;;;;;5135039;27;20485;-82
2022/10/22 04:18:50;;;;;;;0.30;0.30;;;12.00;99.90;;;;;;5135445;27;20447;-82
2022/10/22 04:21:20;;;;;;;0.30;0.30;;;12.00;99.90;;;;;;5135555;27;20463;-82
2022/10/22 04:23:48;;;;;;;0.30;0.30;;;12.00;99.90;;;;;;5135584;27;20451;-82
2022/10/22 04:26:16;;;;;;;0.30;0.20;;;12.00;99.90;;;;;;5135148;27;20818;-82
2022/10/22 04:28:44;;;;;;;0.40;0.30;;;12.00;99.90;;;;;;5135257;27;20486;-82
2022/10/22 04:31:14;;;;;;;0.30;0.30;;;12.00;99.90;;;;;;5135301;27;20463;-82
2022/10/22 04:33:41;;;;;;;0.30;0.20;;;12.00;99.90;;;;;;5135833;27;20789;-86
2022/10/22 04:36:10;;;;;;;0.30;0.30;;;12.00;99.90;;;;;;5134843;27;20931;-83
2022/10/22 04:38:37;;;;;;;0.40;0.20;;;11.90;99.90;;;;;;5134278;27;20546;-82
2022/10/22 04:41:11;;;;;;;0.30;0.30;;;11.90;99.90;;;;;;5135031;27;20974;-83
2022/10/22 04:43:38;;;;;;;0.30;0.30;;;11.90;99.90;;;;;;5135316;27;20457;-82
2022/10/22 04:46:07;;;;;;;0.30;0.30;;;11.90;99.90;;;;;;5135029;27;20966;-83
2022/10/22 04:48:36;;;;;;;0.30;0.30;;;11.90;99.90;;;;;;5134740;27;20470;-83
2022/10/22 04:51:03;;;;;;;0.30;0.20;;;11.90;99.90;;;;;;5134850;27;20466;-83
2022/10/22 04:53:30;;;;;;;0.30;0.30;;;11.90;99.90;;;;;;5134739;27;20462;-82
2022/10/22 04:56:07;;;;;;;0.43;0.30;;;11.90;99.90;;;;;;5134762;27;20956;-83
2022/10/22 04:58:34;;;;;;;0.30;0.20;;;12.00;99.90;;;;;;5134415;27;20837;-83
2022/10/22 05:01:01;;;;;;;0.40;0.30;;;11.90;99.90;;;;;;5134589;27;20482;-83
2022/10/22 05:03:28;;;;;;;0.30;0.30;;;11.90;99.90;;;;;;5134542;27;20450;-83
2022/10/22 05:05:56;;;;;;;0.40;0.30;;;11.90;99.90;;;;;;5134596;27;20447;-82
2022/10/22 05:08:22;;;;;;;0.30;0.30;;;11.90;99.90;;;;;;5134488;27;20474;-82
2022/10/22 05:10:49;;;;;;;0.30;0.30;;;11.90;99.90;;;;;;5134406;27;20470;-83
2022/10/22 05:13:16;;;;;;;0.30;0.30;;;11.90;99.90;;;;;;5134160;27;20438;-82
2022/10/22 05:15:43;;;;;;;0.30;0.30;;;11.90;99.90;;;;;;5134020;27;20472;-83
2022/10/22 05:18:09;;;;;;;0.30;0.20;;;11.80;99.90;;;;;;5134440;27;20454;-83
2022/10/22 05:20:39;;;;;;;0.30;0.20;;;11.90;99.90;;;;;;5134346;27;20458;-82
2022/10/22 05:23:07;;;;;;;0.30;0.20;;;11.90;99.90;;;;;;5134339;27;20458;-83
2022/10/22 05:25:37;;;;;;;0.63;0.30;;;11.90;99.90;;;;;;5134309;27;20543;-82
2022/10/22 05:28:04;;;;;;;0.30;0.20;;;11.80;99.90;;;;;;5134227;27;20483;-83
2022/10/22 05:30:30;;;;;;;1.80;0.40;;;11.80;99.90;;;;;;5134126;27;20469;-82
2022/10/22 05:32:57;;;;;;;0.40;0.33;;;11.80;99.90;;;;;;5133926;28;20922;-83
2022/10/22 05:35:24;;;;;;;0.40;0.30;;;11.80;99.90;;;;;;5134207;28;20447;-83
2022/10/22 05:37:51;;;;;;;0.57;0.30;;;11.90;99.90;;;;;;5134413;28;20450;-82
2022/10/22 05:40:19;;;;;;;0.30;0.20;;;11.90;99.90;;;;;;5134047;28;20467;-83
2022/10/22 05:42:46;;;;;;;0.40;0.40;;;11.90;99.90;;;;;;5134111;27;20457;-83
2022/10/22 05:45:12;;;;;;;0.30;0.30;;;11.90;99.90;;;;;;5134077;28;20447;-83
2022/10/22 05:47:39;;;;;;;0.30;0.30;;;11.80;99.90;;;;;;5134030;28;20449;-83
2022/10/22 05:50:07;;;;;;;0.30;0.20;;;11.80;99.90;;;;;;5136016;27;20411;-84
2022/10/22 05:52:34;;;;;;;0.50;0.30;;;11.80;99.90;;;;;;5138331;27;20423;-83
2022/10/22 05:55:00;;;;;;;0.30;0.20;;;11.80;99.90;;;;;;5138225;27;20854;-83
2022/10/22 05:57:28;;;;;;;0.30;0.20;;;11.90;99.90;;;;;;5137774;27;20925;-83
2022/10/22 05:59:55;;;;;;;0.30;0.20;;;11.80;99.90;;;;;;5138556;27;20832;-83
2022/10/22 06:02:22;;;;;;;0.70;0.37;;;11.90;99.90;;;;;;5138153;27;20453;-83
2022/10/22 06:04:49;;;;;;;0.30;0.30;;;12.00;99.90;;;;;;5138206;27;20442;-84
2022/10/22 06:07:16;;;;;;;0.30;0.30;;;11.90;99.90;;;;;;5138155;27;20445;-84
2022/10/22 06:09:43;;;;;;;0.40;0.40;;;11.90;99.90;;;;;;5138010;27;20471;-84
2022/10/22 06:12:12;;;;;;;0.30;0.30;;;12.00;99.90;;;;;;5138104;27;20467;-84
2022/10/22 06:14:40;;;;;;;0.30;0.20;;;12.00;99.90;;;;;;5137787;27;20994;-84
2022/10/22 06:17:07;;;;;;;0.30;0.30;;;12.00;99.90;;;;;;5137482;27;20577;-84
2022/10/22 06:19:34;;;;;;;0.30;0.30;;;12.10;99.90;;;;;;5137930;27;20450;-84
2022/10/22 06:22:00;;;;;;;0.30;0.30;;;12.10;99.90;;;;;;5137567;27;20443;-84
2022/10/22 06:24:27;;;;;;;0.40;0.30;;;12.20;99.90;;;;;;5138147;27;20442;-84
2022/10/22 06:26:54;;;;;;;0.30;0.30;;;12.20;99.90;;;;;;5137740;27;20443;-80
2022/10/22 06:29:21;;;;;;;0.30;0.27;;;12.20;99.90;;;;;;5137639;27;20486;-84
2022/10/22 06:31:49;;;;;;;0.30;0.20;;;12.20;99.90;;;;;;5137690;27;20481;-84
2022/10/22 06:34:17;;;;;;;0.30;0.30;;;12.30;99.90;;;;;;5137289;27;20945;-85
2022/10/22 06:36:44;;;;;;;0.87;0.33;;;12.30;99.90;;;;;;5137720;27;20471;-84
2022/10/22 06:39:13;;;;;;;0.40;0.40;;;12.40;99.90;;;;;;5137355;27;20964;-85
2022/10/22 06:41:40;;;;;;;0.40;0.30;;;12.40;99.90;;;;;;5137207;27;20447;-84
2022/10/22 06:44:07;;;;;;;0.30;0.20;;;12.40;99.90;;;;;;5137467;27;20473;-85
2022/10/22 06:46:34;;;;;;;0.40;0.40;;;12.40;99.90;;;;;;5137217;27;20784;-86
2022/10/22 06:49:04;;;;;;;0.37;0.30;;;12.40;99.90;;;;;;5137385;27;20819;-85
2022/10/22 06:51:31;;;;;;;0.30;0.30;;;12.50;99.90;;;;;;5137096;27;20470;-85
2022/10/22 06:53:59;;;;;;;0.30;0.30;;;12.50;99.90;;;;;;5137366;27;20451;-85
2022/10/22 06:56:27;;;;;;;0.40;0.30;;;12.50;99.90;;;;;;5137295;27;20446;-85
2022/10/22 06:58:56;;;;;;;0.30;0.20;;;12.50;99.90;;;;;;5137217;27;20438;-85
2022/10/22 07:01:25;;;;;;;0.30;0.30;;;12.50;99.90;;;;;;5136570;27;20463;-86
2022/10/22 07:03:53;;;;;;;0.40;0.30;;;12.50;99.90;;;;;;5137400;27;20439;-85
2022/10/22 07:06:22;;;;;;;0.30;0.30;;;12.50;99.90;;;;;;5137303;27;20545;-86
2022/10/22 07:08:49;;;;;;;0.30;0.20;;;12.60;99.90;;;;;;5137213;27;20478;-86
2022/10/22 07:11:17;;;;;;;0.30;0.30;;;12.60;99.90;;;;;;5137059;27;20462;-86
2022/10/22 07:13:45;;;;;;;0.40;0.30;;;12.70;99.90;;;;;;5137132;27;20439;-86
2022/10/22 07:16:13;;;;;;;0.40;0.30;;;12.80;99.90;;;;;;5136810;27;21098;-87
2022/10/22 07:18:40;;;;;;;0.53;0.30;;;12.80;99.90;;;;;;5137076;27;20442;-86
2022/10/22 07:21:08;;;;;;;0.30;0.30;;;12.90;99.90;;;;;;5137118;27;20482;-86
2022/10/22 07:23:36;;;;;;;0.77;0.40;;;12.90;99.90;;;;;;5136702;27;20447;-85
2022/10/22 07:26:05;;;;;;;0.30;0.30;;;13.00;99.90;;;;;;5136910;27;20447;-86
2022/10/22 07:28:33;;;;;;;0.30;0.30;;;13.00;99.90;;;;;;5136899;27;20482;-86
2022/10/22 07:30:59;;;;;;;0.30;0.30;;;13.00;99.90;;;;;;5136825;27;20463;-86
2022/10/22 07:33:26;;;;;;;0.30;0.20;;;13.00;99.90;;;;;;5136926;27;20451;-86
2022/10/22 07:35:58;;;;;;;0.30;0.30;;;13.10;99.90;;;;;;5136636;27;20431;-87
2022/10/22 07:38:25;;;;;;;0.40;0.37;;;13.00;99.90;;;;;;5137242;27;20422;-87
2022/10/22 07:40:53;;;;;;;1.27;0.30;;;13.00;99.90;;;;;;5136775;27;20466;-87
2022/10/22 07:43:19;;;;;;;0.50;0.40;;;13.00;99.90;;;;;;5136937;27;20447;-87
2022/10/22 07:45:46;;;;;;;0.60;0.30;;;13.00;99.90;;;;;;5136744;27;20447;-87
2022/10/22 07:48:13;;;;;;;0.30;0.30;;;13.00;99.90;;;;;;5136704;27;20449;-87
2022/10/22 07:50:40;;;;;;;0.30;0.30;;;13.00;99.90;;;;;;5136186;27;20981;-87
2022/10/22 07:53:07;;;;;;;0.70;0.30;;;13.10;99.90;;;;;;5136641;27;20818;-87
2022/10/22 07:55:34;;;;;;;0.30;0.30;;;13.10;99.90;;;;;;5136251;27;20941;-86
2022/10/22 07:58:03;;;;;;;1.50;0.40;;;13.10;99.90;;;;;;5136542;27;20925;-87
2022/10/22 08:00:29;;;;;;;0.40;0.30;;;13.10;99.90;;;;;;5136523;27;20826;-87
2022/10/22 08:02:56;;;;;;;0.67;0.37;;;13.20;99.90;;;;;;5136378;27;20848;-87
2022/10/22 08:05:23;;;;;;;2.40;0.87;;;13.20;99.90;;;;;;5136255;27;20443;-90
2022/10/22 08:07:50;;;;;;;0.60;0.50;;;13.30;99.90;;;;;;5136394;27;20442;-87
2022/10/22 08:10:17;;;;;;;0.40;0.40;;;13.40;99.90;;;;;;5135987;27;20486;-87
2022/10/22 08:12:44;;;;;;;0.40;0.30;;;13.40;99.90;;;;;;5136259;27;20454;-86
2022/10/22 08:15:12;;;;;;;0.40;0.40;;;13.50;99.90;;;;;;5135840;27;20458;-86
2022/10/22 08:17:39;;;;;;;0.30;0.30;;;13.60;99.90;;;;;;5135879;27;20432;-86
2022/10/22 08:20:07;;;;;;;0.30;0.20;;;13.70;99.90;;;;;;5135806;27;20445;-87
2022/10/22 08:22:33;;;;;;;0.40;0.37;;;13.80;99.90;;;;;;5135751;27;20449;-87
2022/10/22 08:25:00;;;;;;;0.30;0.20;;;14.10;99.90;;;;;;5135758;27;20428;-86
2022/10/22 08:27:27;;;;;;;0.50;0.40;;;14.30;99.90;;;;;;5135859;27;20958;-86
2022/10/22 08:29:54;;;;;;;0.87;0.40;;;14.40;99.90;;;;;;5135425;27;20478;-86
2022/10/22 08:32:22;;;;;;;0.30;0.20;;;14.50;99.90;;;;;;5135537;27;20447;-85
2022/10/22 08:34:49;;;;;;;0.40;0.40;;;14.50;99.90;;;;;;5135179;27;20443;-86
2022/10/22 08:37:16;;;;;;;0.50;0.40;;;14.70;99.90;;;;;;5135473;27;20439;-86
2022/10/22 08:39:43;;;;;;;0.30;0.30;;;15.00;99.90;;;;;;5135560;27;20470;-85
2022/10/22 08:42:34;;;;;;;0.40;0.40;;;15.20;99.90;;;;;;5135351;27;20463;-86
2022/10/22 08:45:08;;;;;;;0.30;0.30;;;15.60;99.90;;;;;;5134866;27;20454;-85
2022/10/22 08:48:02;;;;;;;1.07;0.40;;;16.20;99.90;;;;;;5134858;27;20423;-86
2022/10/22 08:50:35;;;;;;;0.60;0.60;;;17.20;99.90;;;;;;5134711;27;20487;-85
2022/10/22 08:53:07;;;;;;;0.50;0.50;;;18.40;99.90;;;;;;5134821;27;20431;-85
2022/10/22 08:55:37;;;;;;;0.30;0.30;;;19.80;99.90;;;;;;5135726;27;20427;-85
2022/10/22 08:58:16;;;;;;;0.40;0.30;;;20.60;99.90;;;;;;5134914;27;20438;-84
2022/10/22 09:00:46;;;;;;;0.60;0.50;;;21.70;99.90;;;;;;5134761;27;20462;-84
2022/10/22 09:03:35;;;;;;;0.50;0.30;;;23.00;99.90;;;;;;5135323;27;20782;-84
2022/10/22 09:06:08;;;;;;;0.40;0.40;;;24.40;99.90;;;;;;5135514;27;20422;-90
2022/10/22 09:08:36;;;;;;;0.40;0.30;;;25.60;99.90;;;;;;5135525;27;20191;-83
2022/10/22 09:11:07;;;;;;;0.57;0.57;;;26.30;99.90;;;;;;5134696;27;20231;-82
2022/10/22 09:13:33;;;;;;;0.45;0.45;;;26.90;99.90;;;;;;5135756;27;20181;-83
2022/10/22 09:16:14;;;;;;;0.50;0.40;;;27.60;99.90;;;;;;5134591;27;20733;-82
2022/10/22 09:18:50;;;;;;;0.40;0.30;;;27.90;99.90;;;;;;5135290;27;20192;-83
2022/10/22 09:21:27;;;;;;;0.43;0.40;;;28.00;99.90;;;;;;5134779;27;20707;-83
2022/10/22 09:24:04;;;;;;;0.40;0.40;;;28.00;99.90;;;;;;5134658;27;20184;-83
2022/10/22 09:26:36;;;;;;;0.50;0.40;;;27.20;99.90;;;;;;5135191;27;20195;-83
2022/10/22 09:29:04;;;;;;;0.40;0.30;;;27.70;99.90;;;;;;5134361;27;20636;-83
2022/10/22 09:31:33;;;;;;;0.43;0.35;;;27.60;99.90;;;;;;5135118;28;20221;-83
2022/10/22 09:34:06;;;;;;;0.30;0.30;;;28.00;99.90;;;;;;5134423;28;20226;-83
2022/10/22 09:36:34;;;;;;;0.40;0.32;;;28.30;99.90;;;;;;5134713;28;20195;-83
2022/10/22 09:39:01;;;;;;;0.40;0.30;;;28.00;99.90;;;;;;5135080;28;20204;-83
2022/10/22 09:41:29;;;;;;;0.30;0.30;;;27.60;99.90;;;;;;5134213;28;20598;-83
2022/10/22 09:43:56;;;;;;;0.40;0.30;;;27.10;99.90;;;;;;5134544;28;20223;-83
2022/10/22 09:46:25;;;;;;;0.30;0.30;;;26.10;99.90;;;;;;5134791;28;20200;-84
2022/10/22 09:49:02;;;;;;;0.40;0.35;;;25.50;99.90;;;;;;5134424;28;20201;-84
2022/10/22 09:51:41;;;;;;;0.40;0.40;;;25.20;99.90;;;;;;5134396;27;20597;-84
2022/10/22 09:54:16;;;;;;;0.40;0.40;;;25.20;99.90;;;;;;5134756;28;20193;-84
2022/10/22 09:56:46;;;;;;;0.40;0.40;;;25.80;99.90;;;;;;5134587;28;20596;-83
2022/10/22 09:59:15;;;;;;;0.40;0.40;;;26.70;99.90;;;;;;5134423;28;20193;-84
2022/10/22 10:01:43;;;;;;;1.45;0.43;;;27.70;99.90;;;;;;5134125;28;20217;-84
2022/10/22 10:04:13;;;;;;;0.40;0.30;;;28.90;99.10;;;;;;5134357;28;20209;-83
2022/10/22 10:06:42;;;;;;;0.40;0.40;;;30.10;96.10;;;;;;5134278;27;20216;-84
2022/10/22 10:09:15;;;;;;;0.40;0.32;;;30.80;95.20;;;;;;5134129;28;20201;-84
2022/10/22 10:11:48;;;;;;;0.40;0.40;;;31.70;93.40;;;;;;5134193;28;20231;-84
2022/10/22 10:14:29;;;;;;;0.50;0.40;;;32.20;91.40;;;;;;5134189;28;20193;-84
2022/10/22 10:17:02;;;;;;;0.45;0.45;;;32.20;86.10;;;;;;5133923;28;20236;-84
2022/10/22 10:19:45;;;;;;;0.40;0.40;;;32.00;85.00;;;;;;5134016;28;20190;-84
2022/10/22 10:22:32;;;;;;;0.40;0.40;;;31.60;85.40;;;;;;5133930;28;20220;-84
2022/10/22 10:25:14;;;;;;;0.80;0.60;;;30.50;85.40;;;;;;5133973;28;20185;-84
2022/10/22 10:27:46;;;;;;;0.43;0.40;;;29.90;88.50;;;;;;5134016;28;20588;-84
2022/10/22 10:30:16;;;;;;;0.40;0.40;;;29.20;91.10;;;;;;5133493;28;20224;-84
2022/10/22 10:32:58;;;;;;;0.98;0.70;;;28.70;91.10;;;;;;5133925;28;20189;-84
2022/10/22 10:35:28;;;;;;;0.50;0.50;;;27.70;92.60;;;;;;5133872;27;20185;-85
2022/10/22 10:38:10;;;;;;;0.40;0.40;;;27.10;92.80;;;;;;5137183;27;20549;-85
2022/10/22 10:40:45;;;;;;;0.77;0.40;;;26.00;93.60;;;;;;5137492;27;20223;-84
2022/10/22 10:43:19;;;;;;;0.85;0.40;;;25.10;96.30;;;;;;5137521;27;20184;-84
2022/10/22 10:45:58;;;;;;;0.47;0.47;;;24.60;97.00;;;;;;5137148;27;20654;-86
2022/10/22 10:48:34;;;;;;;0.47;0.35;;;23.70;96.90;;;;;;5137491;27;20279;-85
2022/10/22 10:51:12;;;;;;;1.20;0.50;;;23.00;99.40;;;;;;5137352;27;20224;-85
2022/10/22 10:53:52;;;;;;;0.40;0.30;;;22.50;99.90;;;;;;5137450;27;20200;-85
2022/10/22 10:56:35;;;;;;;0.40;0.40;;;22.30;99.90;;;;;;5136971;27;20651;-86
2022/10/22 10:59:12;;;;;;;0.47;0.40;;;22.00;99.90;;;;;;5137253;27;20555;-85
2022/10/22 11:01:49;;;;;;;0.60;0.43;;;21.80;99.90;;;;;;5137189;27;20227;-86
2022/10/22 11:04:46;;;;;;;0.65;0.40;;;21.60;99.90;;;;;;5137480;27;20188;-86
2022/10/22 11:07:19;;;;;;;0.40;0.40;;;21.40;99.90;;;;;;5136902;27;20689;-85
2022/10/22 11:09:53;;;;;;;0.40;0.40;;;21.10;99.90;;;;;;5136921;27;20201;-85
2022/10/22 11:12:25;;;;;;;0.77;0.47;;;21.10;99.90;;;;;;5136812;27;20199;-85
2022/10/22 11:14:58;;;;;;;0.40;0.40;;;21.00;99.90;;;;;;5137197;27;20442;-86
2022/10/22 11:17:33;;;;;;;0.40;0.40;;;21.10;99.90;;;;;;5116554;28;20420;-85
2022/10/22 11:20:05;;;;;;;0.67;0.40;;;21.10;99.90;;;;;;5116376;28;20422;-86
2022/10/22 11:22:38;;;;;;;0.63;0.40;;;21.10;99.90;;;;;;5116484;28;20431;-86
2022/10/22 11:25:16;;;;;;;0.50;0.40;;;21.10;99.90;;;;;;5116580;28;20799;-86
2022/10/22 11:27:47;;;;;;;5.70;0.60;;;21.10;99.90;;;;;;5116213;27;20933;-87
2022/10/22 11:30:17;;;;;;;0.50;0.50;;;21.10;99.90;;;;;;5116335;28;20489;-87
2022/10/22 11:32:48;;;;;;;0.50;0.40;;;20.90;99.90;;;;;;5116068;27;20447;-87
2022/10/22 11:35:19;;;;;;;0.40;0.40;;;20.90;99.90;;;;;;5116484;28;20439;-87
2022/10/22 11:37:48;;;;;;;0.30;0.30;;;20.90;99.90;;;;;;5117418;27;20782;-87
2022/10/22 11:40:19;;;;;;;1.37;0.30;;;20.80;99.90;;;;;;5116200;28;20459;-86
2022/10/22 11:42:49;;;;;;;0.37;0.37;;;20.60;99.90;;;;;;5116392;27;20428;-86
2022/10/22 11:45:31;;;;;;;1.67;0.33;;;20.50;99.90;;;;;;5116207;28;20450;-86
2022/10/22 11:48:06;;;;;;;2.93;0.40;;;20.40;99.90;;;;;;5115729;27;20428;-86
2022/10/22 11:50:49;;;;;;;0.60;0.40;;;20.20;99.90;;;;;;5116228;27;20486;-87
2022/10/22 11:53:29;;;;;;;0.50;0.30;;;19.80;99.90;;;;;;5115735;28;20471;-87
2022/10/22 11:55:58;;;;;;;0.40;0.30;;;19.70;99.90;;;;;;5115620;28;20428;-87
2022/10/22 11:58:29;;;;;;;0.33;0.30;;;19.40;99.90;;;;;;5115317;28;20451;-86
2022/10/22 12:00:58;;;;;;;0.57;0.40;;;19.30;99.90;;;;;;5115183;28;20974;-86
2022/10/22 12:03:39;;;;;;;0.40;0.30;;;19.20;99.90;;;;;;5115281;28;20459;-86
2022/10/22 12:06:19;;;;;;;0.50;0.40;;;19.10;99.90;;;;;;5115750;28;20431;-86
2022/10/22 12:08:56;;;;;;;1.07;0.40;;;19.00;99.90;;;;;;5115674;28;20527;-86
2022/10/22 12:11:25;;;;;;;0.57;0.40;;;19.00;99.90;;;;;;5115025;28;21050;-86
2022/10/22 12:13:59;;;;;;;0.60;0.40;;;19.00;99.90;;;;;;5115289;28;20799;-86
2022/10/22 12:16:27;;;;;;;0.70;0.43;;;18.90;99.90;;;;;;5127949;27;20524;-86
2022/10/22 12:19:01;;;;;;;0.50;0.50;;;18.90;99.90;;;;;;5135802;27;20439;-87
2022/10/22 12:21:28;;;;;;;0.80;0.47;;;19.00;99.90;;;;;;5135678;27;20578;-86
2022/10/22 12:23:56;;;;;;;1.70;0.50;;;19.00;99.90;;;;;;5135555;27;20775;-86
2022/10/22 12:26:26;;;;;;;1.80;0.40;;;19.10;99.90;;;;;;5135436;27;20968;-86
2022/10/22 12:28:58;;;;;;;0.30;0.30;;;19.20;99.90;;;;;;5135713;27;20933;-86
2022/10/22 12:31:24;;;;;;;0.40;0.30;;;19.30;99.90;;;;;;5135593;27;20531;-86
2022/10/22 12:33:56;;;;;;;0.37;0.30;;;19.40;99.90;;;;;;5136307;27;20446;-86
2022/10/22 12:36:26;;;;;;;0.83;0.40;;;19.40;99.90;;;;;;5136633;27;20426;-87
2022/10/22 12:38:53;;;;;;;0.63;0.30;;;19.30;99.90;;;;;;5135364;27;20450;-87
2022/10/22 12:41:21;;;;;;;0.50;0.37;;;19.30;99.90;;;;;;5135377;27;20474;-86
2022/10/22 12:43:48;;;;;;;5.60;0.40;;;19.40;99.90;;;;;;5135452;27;20442;-85
2022/10/22 12:46:16;;;;;;;0.40;0.40;;;19.50;99.90;;;;;;5135123;27;20453;-86
2022/10/22 12:48:45;;;;;;;0.43;0.43;;;19.40;99.90;;;;;;5135519;27;20809;-86
2022/10/22 12:51:16;;;;;;;0.40;0.30;;;19.30;99.90;;;;;;5135311;27;20482;-87
2022/10/22 12:53:47;;;;;;;0.40;0.30;;;19.20;99.90;;;;;;5135585;27;20438;-86
2022/10/22 12:56:17;;;;;;;0.93;0.70;;;19.10;99.90;;;;;;5135432;27;20808;-87
2022/10/22 12:58:48;;;;;;;0.50;0.40;;;19.00;99.90;;;;;;5134655;27;20434;-86
2022/10/22 13:01:17;;;;;;;0.83;0.50;;;18.80;99.90;;;;;;5135316;27;20466;-86
2022/10/22 13:03:48;;;;;;;0.30;0.30;;;18.70;99.90;;;;;;5135108;27;20450;-87